Aktualne dane pomiarowe

Uwaga, wersja testowa! Automatyczne pobieranie danych za pomocą narzędzi lub skryptów to umożliwiających jest zabronione.

Dane meteo z obszaru Polski uzyskane na podstawie depesz SYNOP pobieranych co godzinę z NWS. Najedź myszką na symbol przedstawiony w tabeli, aby uzyskać informacje co do jego znaczenia. Prosimy pamiętać, że to testowa wersja strony, która jeszcze nie jest ukończona. Stworzono również jest krótki FAQ dotyczący korzystania z tej podstrony Anomalie temperatury w chwili obecnej odniesione są do okresu referencyjnego 1951-2016. Okres ten będzie później zmieniony na 1981-2010. Kliknij ikonę aby pobrać plik CSV. Kliknij ikonę aby wygenerować mapę synoptyczną dla danego terminu.

Wybierz Datę:    

        

Kłodzko (12520)

Dane terminowe dla wybranej stacji. Kliknij datę, aby otrzymać dane z tego terminu dla wszystkich stacji.

TemperaturaZachmurzenieWiatrCiśnienieOpadyPogoda
 Data t td wb tx tn tg rh  Nt Nl Cl Cm Ch ws wd g1 g2 wx mslp ppp ch 24h 12h t ww ww w1 w2  
2019-06-30 23:00:00 22.7 14.5 17.4--- 6050.0wx-4wx--41014.0 973.0 0.3---------
2019-06-30 22:00:00 23.7 14.1 17.6--- 5550.0wx-5wx--51013.6 972.8 0.3---------
2019-06-30 21:00:00 23.9 14.0 17.6--- 5450.0wx-wxwx3wx--31013.7 972.9 0.6---------
2019-06-30 20:00:00 24.9 14.4 18.2--- 5250.0wx-wxwx2wx---1013.4 972.7 0.3---------
2019-06-30 19:00:00 26.3 14.7 18.9--- 4950.0wx-wxwx3wx--31013.0 972.5 -0.3---------
2019-06-30 18:00:00 28.1 14.7 19.6 31.7 17.5- 4450.0wx-wxwx6wx-1061012.5 972.3 -0.7- 0.012------
2019-06-30 17:00:00 30.4 13.7 20.0--- 3650.0wx-wxwx6wx--61012.3 972.4 -1.1---------
2019-06-30 16:00:00 30.9 14.9 20.8--- 3845.0wx-wxwx3wx-1031012.6 972.8 -1.2---------
2019-06-30 15:00:00 31.3 14.0 20.5--- 3550.0wx-wxwx5wx--51012.8 973.0 -1.7---------
2019-06-30 14:00:00 30.5 15.0 20.7--- 3945.0wx-6wx--61013.4 973.5 -1.8---------
2019-06-30 13:00:00 30.0 16.1 21.1--- 4345.0wx-6wx--61014.0 974.0 -1.7---------
2019-06-30 12:00:00 29.0 15.5 20.4--- 4450.0wx-7wx--71014.9 974.7 -1.7- 0.06------
2019-06-30 11:00:00 28.2 14.4 19.5--- 4350.0wx-8wx--81015.6 975.3 -1.4---------
2019-06-30 10:00:00 27.7 14.0 19.1--- 4350.0wx-7wx--71016.1 975.7 -1.4---------
2019-06-30 09:00:00 26.3 14.7 18.9--- 4950.0wx-7wx--71017.0 976.4 -1.0---------
2019-06-30 08:00:00 25.0 13.9 18.0--- 5050.0wx-5wx--51017.5 976.7 -0.9---------
2019-06-30 07:00:00 22.0 14.6 17.2--- 6350.0wx-1wx--11018.4 977.1 -0.4---------
2019-06-30 06:00:00 17.5 13.4 14.8 23.7 10.5 9 7745.0wx-1wx--11019.3 977.4 0.0- 0.012----- 14.7
2019-06-30 05:00:00 14.0 12.4 12.9--- 9035.0wx-1wx--11020.1 977.6 0.2---------
2019-06-30 04:00:00 11.6 10.8 11.0--- 9535.0wx-1wx---1020.3 977.5 -0.3---------
2019-06-30 03:00:00 10.5 9.4 9.7--- 9335.0wx-2wx--21020.4 977.4 -0.8---------
2019-06-30 02:00:00 12.0 10.1 10.7--- 8835.0wx-2wx--21020.1 977.4 -1.1---------
2019-06-30 01:00:00 12.9 11.1 11.6--- 8930.0wx-2wx--21020.4 977.8 -0.7---------
2019-06-30 00:00:00 13.3 11.7 12.2--- 9030.0wx-2wx---1020.8 978.2 -0.1---------
2019-06-29 23:00:00 14.4 12.3 12.9--- 8730.0wx-0----1020.9 978.5 0.4---------
2019-06-29 22:00:00 15.4 12.9 13.7--- 8530.0wx-2wx---1020.8 978.5 0.6---------
2019-06-29 21:00:00 17.0 14.1 15.0--- 8325.0wx-2wx---1020.3 978.3 0.4---------
2019-06-29 20:00:00 20.2 12.7 15.5--- 6250.0wx-wx1wx--11019.7 978.1 0.0---------
2019-06-29 19:00:00 21.2 13.6 16.3--- 6250.0wx-wx2wx--21019.3 977.9 -0.5---------
2019-06-29 18:00:00 23.7 14.9 18.0 27.4 14.2- 5850.0wx-wx3wx--31018.9 977.9 -0.7- 0.012------
2019-06-29 17:00:00 26.6 14.0 18.7--- 4645.0wx-wx1wx---1018.7 978.1 -1.0---------
2019-06-29 16:00:00 27.2 11.6 17.8--- 3845.0wx-wx1wx---1019.0 978.4 -0.8---------
2019-06-29 15:00:00 26.7 11.2 17.4--- 3840.0wx-wx1wx--11019.3 978.6 -1.2---------
2019-06-29 14:00:00 26.3 11.2 17.3--- 3940.0wxwxwxwx3wx---1019.8 979.1 -1.2---------
2019-06-29 13:00:00 25.9 11.3 17.1--- 4035.0wxwxwxwx1wx---1020.0 979.2 -1.3---------
2019-06-29 12:00:00 24.6 10.8 16.4--- 4235.0wxwxwxwx1wx--11020.8 979.8 -0.9- 0.06------
2019-06-29 11:00:00 24.1 10.7 16.1--- 4335.0wxwxwxwx1wx--11021.4 980.3 -0.7---------
2019-06-29 10:00:00 23.0 12.0 16.3--- 5035.0wxwxwxwx2wx--21021.8 980.5 -0.8---------
2019-06-29 09:00:00 21.8 12.4 16.0--- 5535.0wxwxwxwx1wx--11022.1 980.7 -0.9---------
2019-06-29 08:00:00 20.5 11.9 15.2--- 5840.0wxwxwxwx1wx--11022.6 981.0 -0.5---------
2019-06-29 07:00:00 16.6 11.1 13.1--- 7040.0wxwxwxwx1wx--11023.5 981.3 -0.3---------
2019-06-29 06:00:00 14.3 10.3 11.7 20.2 8.1 7 7735.0wxwxwxwx1wx--11024.2 981.6 0.1- 0.012----- 10.5
2019-06-29 05:00:00 11.2 9.9 10.3--- 9235.0wx-wx1wx--11024.6 981.5 -0.1---------
2019-06-29 04:00:00 9.8 8.6 8.9--- 9235.0wx-wx1wx--11024.9 981.6 0.1---------
2019-06-29 03:00:00 8.4 8.0 8.1--- 9735.0wx-wx1wx--11025.0 981.5 0.2---------
2019-06-29 02:00:00 8.5 7.6 7.8--- 9435.0wx-wx1wx--11025.1 981.6 0.4---------
2019-06-29 01:00:00 10.0 8.4 8.9--- 9040.0wx-1wx--11024.7 981.5 0.3---------
2019-06-29 00:00:00 10.5 9.3 9.6--- 9240.0wx-1wx--11024.5 981.3 0.1- 0.06------
1.7 ms

 

Print Friendly, PDF & Email